DFFD

Ouagadougou Airport

Ouagadougou, Burkina Faso
METAR DFFD 172100Z 08005KT 8000 NSC 29/02 Q1010 NOSIG
Observed Flight Rules
Feb-17 @ 21:00 UTC (35 minutes ago) Marginal Visual Flight Rules
Wind Visibility Clouds
80° at 5 knots 7,998 meters
  • Clear skies
Temperatures Readings
Current 29°C / 84°F
Dewpoint 2°C / 36°F
Humidity 18%
Altimeter 29.82" Hg
Pressure 1010 hPa
Elevation 306
METAR DFFD 172100Z 08005KT 8000 NSC 29/02 Q1010 NOSIG
Observed Flight Rules
Feb-17 @ 21:00 UTC
(35 minutes ago)
MVFR
Wind Visibility
80° at 5 knots 7,998 meters
Clouds
  • Clear skies
Temperature Dewpoint
29°C / 84°F 2°C / 36°F
Humidity Altimeter Pressure
18% 29.82" Hg 1010 hPa